createdAt,value
2023-03-17T00:00:29.387Z,67.42
2023-03-17T00:01:29.029Z,67.14
2023-03-17T00:02:29.127Z,66.92
2023-03-17T00:03:29.023Z,66.67
2023-03-17T00:04:29.003Z,66.77
2023-03-17T00:05:29.986Z,66.90
2023-03-17T00:06:28.990Z,67.30
2023-03-17T00:07:28.989Z,67.16
2023-03-17T00:08:28.973Z,67.00
2023-03-17T00:09:28.972Z,66.30
2023-03-17T00:10:29.263Z,66.54
2023-03-17T00:11:28.933Z,66.56
2023-03-17T00:12:28.936Z,66.61
2023-03-17T00:13:28.916Z,67.20
2023-03-17T00:14:28.911Z,66.90
2023-03-17T00:15:28.897Z,67.14
2023-03-17T00:16:28.920Z,66.92
2023-03-17T00:17:28.893Z,66.64
2023-03-17T00:18:28.872Z,67.11
2023-03-17T00:19:28.884Z,67.19
2023-03-17T00:20:29.125Z,67.05
2023-03-17T00:21:28.852Z,66.83
2023-03-17T00:22:28.856Z,66.71
2023-03-17T00:23:28.840Z,67.14
2023-03-17T00:24:28.833Z,66.86
2023-03-17T00:25:28.813Z,66.54
2023-03-17T00:26:28.809Z,66.66
2023-03-17T00:27:28.803Z,66.39
2023-03-17T00:28:28.780Z,67.14
2023-03-17T00:29:28.845Z,66.63
2023-03-17T00:30:29.189Z,66.99
2023-03-17T00:31:28.816Z,67.29
2023-03-17T00:32:28.787Z,67.64
2023-03-17T00:33:28.743Z,67.23
2023-03-17T00:34:28.734Z,66.96
2023-03-17T00:35:28.802Z,66.43
2023-03-17T00:36:28.717Z,67.05
2023-03-17T00:37:28.714Z,67.00
2023-03-17T00:38:28.697Z,67.33
2023-03-17T00:39:28.712Z,66.46
2023-03-17T00:40:29.084Z,66.46
2023-03-17T00:41:28.674Z,66.52
2023-03-17T00:42:28.669Z,66.77
2023-03-17T00:43:30.606Z,65.86
2023-03-17T00:44:29.643Z,67.19
2023-03-17T00:45:28.638Z,67.19
2023-03-17T00:46:28.818Z,67.13
2023-03-17T00:47:28.630Z,67.29
2023-03-17T00:48:28.610Z,67.10
2023-03-17T00:49:28.599Z,67.07
2023-03-17T00:50:28.905Z,66.62
2023-03-17T00:51:28.580Z,67.05
2023-03-17T00:52:28.592Z,66.38
2023-03-17T00:53:28.561Z,66.85
2023-03-17T00:54:28.567Z,67.01
2023-03-17T00:55:28.547Z,67.08
2023-03-17T00:56:28.539Z,66.41
2023-03-17T00:57:28.542Z,65.86
2023-03-17T00:58:28.519Z,66.11
2023-03-17T00:59:28.524Z,66.38
2023-03-17T01:00:28.761Z,66.88
2023-03-17T01:01:28.498Z,66.84
2023-03-17T01:02:28.608Z,66.27
2023-03-17T01:03:28.485Z,67.11
2023-03-17T01:04:28.468Z,66.46
2023-03-17T01:05:28.461Z,65.47
2023-03-17T01:06:28.446Z,65.61
2023-03-17T01:07:28.451Z,66.63
2023-03-17T01:08:28.433Z,65.87
2023-03-17T01:09:28.430Z,65.93
2023-03-17T01:10:29.706Z,67.00
2023-03-17T01:11:28.401Z,65.80
2023-03-17T01:12:28.407Z,65.63
2023-03-17T01:13:28.407Z,66.10
2023-03-17T01:14:28.396Z,66.37
2023-03-17T01:15:28.369Z,65.95
2023-03-17T01:16:28.459Z,66.11
2023-03-17T01:17:28.372Z,66.35
2023-03-17T01:18:28.367Z,66.83
2023-03-17T01:19:28.336Z,66.62
2023-03-17T01:20:28.677Z,66.50
2023-03-17T01:21:28.314Z,65.80
2023-03-17T01:22:28.318Z,65.84
2023-03-17T01:23:28.298Z,66.12
2023-03-17T01:24:28.283Z,67.10
2023-03-17T01:25:28.293Z,66.49
2023-03-17T01:26:28.271Z,65.83
2023-03-17T01:27:28.278Z,66.23
2023-03-17T01:28:28.325Z,65.81
2023-03-17T01:29:28.245Z,65.89
2023-03-17T01:30:28.667Z,66.15
2023-03-17T01:31:28.244Z,66.97
2023-03-17T01:32:28.238Z,65.63
2023-03-17T01:33:28.222Z,65.75
2023-03-17T01:34:28.219Z,66.08
2023-03-17T01:35:28.196Z,66.06
2023-03-17T01:36:28.204Z,66.42
2023-03-17T01:37:28.173Z,65.85
2023-03-17T01:38:28.179Z,65.66
2023-03-17T01:39:28.163Z,65.95
2023-03-17T01:40:28.528Z,67.66
2023-03-17T01:41:28.150Z,66.19
2023-03-17T01:42:28.137Z,65.12
2023-03-17T01:43:28.145Z,65.45
2023-03-17T01:44:28.126Z,65.34
2023-03-17T01:45:28.124Z,65.78
2023-03-17T01:46:28.110Z,65.46
2023-03-17T01:47:28.097Z,65.24
2023-03-17T01:48:28.100Z,65.90
2023-03-17T01:49:28.083Z,66.06
2023-03-17T01:50:28.337Z,64.64
2023-03-17T01:51:28.063Z,65.16
2023-03-17T01:52:28.055Z,65.18
2023-03-17T01:53:28.049Z,64.89
2023-03-17T01:54:28.042Z,64.52
2023-03-17T01:55:28.030Z,64.46
2023-03-17T01:56:28.021Z,64.41
2023-03-17T01:57:28.008Z,64.64
2023-03-17T01:58:28.021Z,63.97
2023-03-17T01:59:28.000Z,65.02
2023-03-17T02:00:28.472Z,64.78
2023-03-17T02:01:28.020Z,64.95
2023-03-17T02:02:27.970Z,65.36
2023-03-17T02:03:28.147Z,65.66
2023-03-17T02:04:27.985Z,65.68
2023-03-17T02:05:27.952Z,64.94
2023-03-17T02:06:27.941Z,64.71
2023-03-17T02:07:27.938Z,65.20
2023-03-17T02:08:27.942Z,64.99
2023-03-17T02:09:27.991Z,65.43
2023-03-17T02:10:28.125Z,65.45
2023-03-17T02:11:27.895Z,64.13
2023-03-17T02:12:27.891Z,65.19
2023-03-17T02:13:27.889Z,65.46
2023-03-17T02:14:27.870Z,64.87
2023-03-17T02:15:27.860Z,65.11
2023-03-17T02:16:27.908Z,65.15
2023-03-17T02:17:27.843Z,65.59
2023-03-17T02:18:27.844Z,64.72
2023-03-17T02:19:27.849Z,65.83
2023-03-17T02:20:28.209Z,65.10
2023-03-17T02:21:27.803Z,65.54
2023-03-17T02:22:27.801Z,65.02
2023-03-17T02:23:27.801Z,65.50
2023-03-17T02:24:27.779Z,65.45
2023-03-17T02:25:27.780Z,65.21
2023-03-17T02:26:27.766Z,65.02
2023-03-17T02:27:27.752Z,65.49
2023-03-17T02:28:27.773Z,65.77
2023-03-17T02:29:27.803Z,65.12
2023-03-17T02:30:27.865Z,65.39
2023-03-17T02:31:27.720Z,64.67
2023-03-17T02:32:27.766Z,65.03
2023-03-17T02:33:27.724Z,64.96
2023-03-17T02:34:27.704Z,65.06
2023-03-17T02:35:27.691Z,65.40
2023-03-17T02:36:27.715Z,65.40
2023-03-17T02:37:27.671Z,64.85
2023-03-17T02:38:27.676Z,64.78
2023-03-17T02:39:27.677Z,65.11
2023-03-17T02:40:27.644Z,65.46
2023-03-17T02:41:27.641Z,65.64
2023-03-17T02:42:27.632Z,64.91
2023-03-17T02:43:27.629Z,65.12
2023-03-17T02:44:27.617Z,64.82
2023-03-17T02:45:27.618Z,65.47
2023-03-17T02:46:27.739Z,65.38
2023-03-17T02:47:27.584Z,65.62
2023-03-17T02:48:27.590Z,65.34
2023-03-17T02:49:27.569Z,65.11
2023-03-17T02:50:27.957Z,65.29
2023-03-17T02:51:27.585Z,64.95
2023-03-17T02:52:27.547Z,65.09
2023-03-17T02:53:27.552Z,65.63
2023-03-17T02:54:27.531Z,65.67
2023-03-17T02:55:27.521Z,65.48
2023-03-17T02:56:27.512Z,64.97
2023-03-17T02:57:27.505Z,66.09
2023-03-17T02:58:27.535Z,66.07
2023-03-17T02:59:27.521Z,65.34
2023-03-17T03:00:27.680Z,65.62
2023-03-17T03:01:27.523Z,65.43
2023-03-17T03:02:27.517Z,65.39
2023-03-17T03:03:27.495Z,65.29
2023-03-17T03:04:27.450Z,66.46
2023-03-17T03:05:27.442Z,65.96
2023-03-17T03:06:27.442Z,65.54
2023-03-17T03:07:27.426Z,65.23
2023-03-17T03:08:27.424Z,65.30
2023-03-17T03:09:27.408Z,66.77
2023-03-17T03:10:27.446Z,65.15
2023-03-17T03:11:27.388Z,66.19
2023-03-17T03:12:27.378Z,65.83
2023-03-17T03:13:27.381Z,64.25
2023-03-17T03:14:27.358Z,65.04
2023-03-17T03:15:27.354Z,65.45
2023-03-17T03:16:27.354Z,65.58
2023-03-17T03:17:27.335Z,65.95
2023-03-17T03:18:27.336Z,66.14
2023-03-17T03:19:27.313Z,64.85
2023-03-17T03:20:27.553Z,65.42
2023-03-17T03:21:27.300Z,65.88
2023-03-17T03:22:27.294Z,63.94
2023-03-17T03:23:27.292Z,65.60
2023-03-17T03:24:27.273Z,65.47
2023-03-17T03:25:27.283Z,65.56
2023-03-17T03:26:27.258Z,64.61
2023-03-17T03:27:27.253Z,65.39
2023-03-17T03:28:27.250Z,66.11
2023-03-17T03:29:27.234Z,65.74
2023-03-17T03:30:27.222Z,66.37
2023-03-17T03:31:27.379Z,64.75
2023-03-17T03:32:27.332Z,65.36
2023-03-17T03:33:27.217Z,64.77
2023-03-17T03:34:27.208Z,65.92
2023-03-17T03:35:27.206Z,65.11
2023-03-17T03:36:27.223Z,65.23
2023-03-17T03:37:27.221Z,66.36
2023-03-17T03:38:27.215Z,66.65
2023-03-17T03:39:27.175Z,65.02
2023-03-17T03:40:27.231Z,65.43
2023-03-17T03:41:27.125Z,65.77
2023-03-17T03:42:27.115Z,66.19
2023-03-17T03:43:27.114Z,66.76
2023-03-17T03:44:27.097Z,65.62
2023-03-17T03:45:27.088Z,65.22
2023-03-17T03:46:27.120Z,66.43
2023-03-17T03:47:27.064Z,66.47
2023-03-17T03:48:27.063Z,66.35
2023-03-17T03:49:27.057Z,66.46
2023-03-17T03:50:27.045Z,66.44
2023-03-17T03:51:27.046Z,66.79
2023-03-17T03:52:27.030Z,66.64
2023-03-17T03:53:27.036Z,66.64
2023-03-17T03:54:27.017Z,67.12
2023-03-17T03:55:27.998Z,66.34
2023-03-17T03:56:26.993Z,67.29
2023-03-17T03:57:27.003Z,66.03
2023-03-17T03:58:27.007Z,66.74
2023-03-17T03:59:26.972Z,66.55
2023-03-17T04:00:26.967Z,67.23
2023-03-17T04:01:26.961Z,66.96
2023-03-17T04:02:26.985Z,66.79
2023-03-17T04:03:26.935Z,66.80
2023-03-17T04:04:26.953Z,68.11
2023-03-17T04:05:26.912Z,66.72
2023-03-17T04:06:26.916Z,67.16
2023-03-17T04:07:26.897Z,66.95
2023-03-17T04:08:26.886Z,67.36
2023-03-17T04:09:26.905Z,68.52
2023-03-17T04:10:26.870Z,67.90
2023-03-17T04:11:26.880Z,67.18
2023-03-17T04:12:26.875Z,67.70
2023-03-17T04:13:26.851Z,67.69
2023-03-17T04:14:26.856Z,67.65
2023-03-17T04:15:26.836Z,68.33
2023-03-17T04:16:26.872Z,68.00
2023-03-17T04:17:26.818Z,68.39
2023-03-17T04:18:26.806Z,67.93
2023-03-17T04:19:26.824Z,68.11
2023-03-17T04:20:26.785Z,67.28
2023-03-17T04:21:26.782Z,67.72
2023-03-17T04:22:26.771Z,68.34
2023-03-17T04:23:26.765Z,67.93
2023-03-17T04:24:26.775Z,67.28
2023-03-17T04:25:26.748Z,67.79
2023-03-17T04:26:26.739Z,67.99
2023-03-17T04:27:26.734Z,68.23
2023-03-17T04:28:26.723Z,67.24
2023-03-17T04:29:26.725Z,66.40
2023-03-17T04:30:26.703Z,67.27
2023-03-17T04:31:26.772Z,67.65
2023-03-17T04:32:27.271Z,67.67
2023-03-17T04:33:27.691Z,66.97
2023-03-17T04:34:26.687Z,68.11
2023-03-17T04:35:26.662Z,66.80
2023-03-17T04:36:26.664Z,66.77
2023-03-17T04:37:26.656Z,67.37
2023-03-17T04:38:26.641Z,67.35
2023-03-17T04:39:26.650Z,66.90
2023-03-17T04:40:26.629Z,67.72
2023-03-17T04:41:26.600Z,66.45
2023-03-17T04:42:27.604Z,67.25
2023-03-17T04:43:26.609Z,66.59
2023-03-17T04:44:26.598Z,66.89
2023-03-17T04:45:26.598Z,67.30
2023-03-17T04:46:26.573Z,67.22
2023-03-17T04:47:26.561Z,66.61
2023-03-17T04:48:26.556Z,68.02
2023-03-17T04:49:26.556Z,67.38
2023-03-17T04:50:26.545Z,67.04
2023-03-17T04:51:26.530Z,67.33
2023-03-17T04:52:26.521Z,66.70
2023-03-17T04:53:26.548Z,67.28
2023-03-17T04:54:26.511Z,67.70
2023-03-17T04:55:26.493Z,67.71
2023-03-17T04:56:26.479Z,67.39
2023-03-17T04:57:26.487Z,67.25
2023-03-17T04:58:30.868Z,66.51
2023-03-17T04:59:27.537Z,66.69
2023-03-17T05:00:58.425Z,67.57
2023-03-17T05:01:26.481Z,66.35
2023-03-17T05:02:26.514Z,67.04
2023-03-17T05:03:27.931Z,66.82
2023-03-17T05:04:31.668Z,67.31
2023-03-17T05:05:27.409Z,67.95
2023-03-17T05:06:27.392Z,67.62
2023-03-17T05:07:26.389Z,66.58
2023-03-17T05:08:26.393Z,67.67
2023-03-17T05:09:26.477Z,67.19
2023-03-17T05:10:26.362Z,66.98
2023-03-17T05:11:26.356Z,67.06
2023-03-17T05:12:26.346Z,66.91
2023-03-17T05:13:26.360Z,66.87
2023-03-17T05:14:26.406Z,67.42
2023-03-17T05:15:26.321Z,67.31
2023-03-17T05:16:26.331Z,66.90
2023-03-17T05:17:26.322Z,67.19
2023-03-17T05:18:26.301Z,67.33
2023-03-17T05:19:26.300Z,66.81
2023-03-17T05:20:26.281Z,67.64
2023-03-17T05:21:26.284Z,65.93
2023-03-17T05:22:26.258Z,66.17
2023-03-17T05:23:26.263Z,66.41
2023-03-17T05:24:26.258Z,67.79
2023-03-17T05:25:26.285Z,67.17
2023-03-17T05:26:26.232Z,67.02
2023-03-17T05:27:26.219Z,67.49
2023-03-17T05:28:26.215Z,67.15
2023-03-17T05:29:26.213Z,67.14
2023-03-17T05:30:26.197Z,67.94
2023-03-17T05:31:26.243Z,67.09
2023-03-17T05:32:26.221Z,66.86
2023-03-17T05:33:26.170Z,67.55
2023-03-17T05:34:26.175Z,67.97
2023-03-17T05:35:26.152Z,68.02
2023-03-17T05:36:26.180Z,63.50
2023-03-17T05:37:26.135Z,62.99
2023-03-17T05:38:26.128Z,65.14
2023-03-17T05:39:26.133Z,65.39
2023-03-17T05:40:26.112Z,65.59
2023-03-17T05:41:26.107Z,66.48
2023-03-17T05:42:26.091Z,66.56
2023-03-17T05:43:26.084Z,66.75
2023-03-17T05:44:26.089Z,67.32
2023-03-17T05:45:26.083Z,65.62
2023-03-17T05:46:26.098Z,66.74
2023-03-17T05:47:26.059Z,66.61
2023-03-17T05:48:26.046Z,66.39
2023-03-17T05:49:26.045Z,66.27
2023-03-17T05:50:26.034Z,66.14
2023-03-17T05:51:26.019Z,67.04
2023-03-17T05:52:26.017Z,65.15
2023-03-17T05:53:26.002Z,67.40
2023-03-17T05:54:26.000Z,65.93
2023-03-17T05:55:25.980Z,66.67
2023-03-17T05:56:25.982Z,65.95
2023-03-17T05:57:25.966Z,66.35
2023-03-17T05:58:25.972Z,66.94
2023-03-17T05:59:25.975Z,65.54
2023-03-17T06:00:25.941Z,66.75
2023-03-17T06:01:25.935Z,65.47
2023-03-17T06:02:25.931Z,65.79
2023-03-17T06:03:25.925Z,66.07
2023-03-17T06:04:25.919Z,65.65
2023-03-17T06:05:25.905Z,65.73
2023-03-17T06:06:25.918Z,66.64
2023-03-17T06:07:25.885Z,66.21
2023-03-17T06:08:25.878Z,66.44
2023-03-17T06:09:25.879Z,66.21
2023-03-17T06:10:25.867Z,65.92
2023-03-17T06:11:25.866Z,66.68
2023-03-17T06:12:25.869Z,66.38
2023-03-17T06:13:25.849Z,67.07
2023-03-17T06:14:27.142Z,67.19
2023-03-17T06:15:26.845Z,66.91
2023-03-17T06:16:26.810Z,67.78
2023-03-17T06:17:25.804Z,66.86
2023-03-17T06:18:25.818Z,66.62
2023-03-17T06:19:25.793Z,67.35
2023-03-17T06:20:25.815Z,66.29
2023-03-17T06:21:25.767Z,66.92
2023-03-17T06:22:25.789Z,66.48
2023-03-17T06:23:25.752Z,66.58
2023-03-17T06:24:25.746Z,67.12
2023-03-17T06:25:26.734Z,66.95
2023-03-17T06:26:25.723Z,67.03
2023-03-17T06:27:25.722Z,66.51
2023-03-17T06:28:25.709Z,67.09
2023-03-17T06:29:25.714Z,66.82
2023-03-17T06:30:25.708Z,66.69
2023-03-17T06:31:25.717Z,66.27
2023-03-17T06:32:25.791Z,65.97
2023-03-17T06:33:25.662Z,67.04
2023-03-17T06:34:25.664Z,67.22
2023-03-17T06:35:25.723Z,67.19
2023-03-17T06:36:25.817Z,67.30
2023-03-17T06:37:25.645Z,67.33
2023-03-17T06:38:25.634Z,67.25
2023-03-17T06:39:25.641Z,66.83
2023-03-17T06:40:25.602Z,66.37
2023-03-17T06:41:25.662Z,66.90
2023-03-17T06:42:25.587Z,67.47
2023-03-17T06:43:25.586Z,67.50
2023-03-17T06:44:25.594Z,66.84
2023-03-17T06:45:25.568Z,66.26
2023-03-17T06:46:25.603Z,66.42
2023-03-17T06:47:26.104Z,67.89
2023-03-17T06:48:26.533Z,67.75
2023-03-17T06:49:25.529Z,68.43
2023-03-17T06:50:25.523Z,67.94
2023-03-17T06:51:25.507Z,66.63
2023-03-17T06:52:25.504Z,67.12
2023-03-17T06:53:25.488Z,67.32
2023-03-17T06:54:25.527Z,67.95
2023-03-17T06:55:25.493Z,67.84
2023-03-17T06:56:30.110Z,67.25
2023-03-17T06:57:27.466Z,67.90
2023-03-17T06:58:25.449Z,67.28
2023-03-17T06:59:25.437Z,67.07
2023-03-17T07:00:25.455Z,68.11
2023-03-17T07:01:25.494Z,66.94
2023-03-17T07:02:25.417Z,66.94
2023-03-17T07:03:25.418Z,65.88
2023-03-17T07:04:25.473Z,66.91
2023-03-17T07:05:25.393Z,67.18
2023-03-17T07:06:25.382Z,67.06
2023-03-17T07:07:25.370Z,67.55
2023-03-17T07:08:25.366Z,67.66
2023-03-17T07:09:25.367Z,67.20
2023-03-17T07:10:25.347Z,68.03
2023-03-17T07:11:25.338Z,67.47
2023-03-17T07:12:25.815Z,67.31
2023-03-17T07:13:25.325Z,67.06
2023-03-17T07:14:25.325Z,66.97
2023-03-17T07:15:25.308Z,67.50
2023-03-17T07:16:25.344Z,66.43
2023-03-17T07:17:25.562Z,66.18
2023-03-17T07:18:25.310Z,66.20
2023-03-17T07:19:25.587Z,66.60
2023-03-17T07:20:25.272Z,66.79
2023-03-17T07:21:25.253Z,66.68
2023-03-17T07:22:25.252Z,67.33
2023-03-17T07:23:25.231Z,66.61
2023-03-17T07:24:25.213Z,66.58
2023-03-17T07:25:25.214Z,66.12
2023-03-17T07:26:25.214Z,67.68
2023-03-17T07:27:25.190Z,67.16
2023-03-17T07:28:25.206Z,67.28
2023-03-17T07:29:25.180Z,66.89
2023-03-17T07:30:25.170Z,66.10
2023-03-17T07:31:25.207Z,67.08
2023-03-17T07:32:25.141Z,66.00
2023-03-17T07:33:25.128Z,66.75
2023-03-17T07:34:25.133Z,67.72
2023-03-17T07:35:25.176Z,67.15
2023-03-17T07:36:25.116Z,67.64
2023-03-17T07:37:25.084Z,66.03
2023-03-17T07:38:25.101Z,65.43
2023-03-17T07:39:25.080Z,66.13
2023-03-17T07:40:25.099Z,67.51
2023-03-17T07:41:25.055Z,67.10
2023-03-17T07:42:25.049Z,66.79
2023-03-17T07:43:25.031Z,66.70
2023-03-17T07:44:25.045Z,65.83
2023-03-17T07:45:25.173Z,66.54
2023-03-17T07:46:25.045Z,67.25
2023-03-17T07:47:24.990Z,67.93
2023-03-17T07:48:24.982Z,66.59
2023-03-17T07:49:39.978Z,69.47
2023-03-17T07:50:26.997Z,67.78
2023-03-17T07:51:24.957Z,68.73
2023-03-17T07:52:24.957Z,68.07
2023-03-17T07:53:24.948Z,67.04
2023-03-17T07:54:24.939Z,68.15
2023-03-17T07:55:24.930Z,68.30
2023-03-17T07:56:24.921Z,68.83
2023-03-17T07:57:24.974Z,67.97
2023-03-17T07:58:24.886Z,67.85
2023-03-17T07:59:24.895Z,67.67
2023-03-17T08:00:25.913Z,68.21
2023-03-17T08:01:24.863Z,67.97
2023-03-17T08:02:24.944Z,68.03
2023-03-17T08:03:24.873Z,69.21
2023-03-17T08:04:24.844Z,68.24
2023-03-17T08:05:24.833Z,67.45
2023-03-17T08:06:24.810Z,66.31
2023-03-17T08:07:24.815Z,67.55
2023-03-17T08:08:24.791Z,67.97
2023-03-17T08:09:24.893Z,68.21
2023-03-17T08:10:24.794Z,67.08
2023-03-17T08:11:24.761Z,67.27
2023-03-17T08:12:24.758Z,66.39
2023-03-17T08:13:24.761Z,66.68
2023-03-17T08:14:24.748Z,67.40
2023-03-17T08:15:24.795Z,67.96
2023-03-17T08:16:24.771Z,67.29
2023-03-17T08:17:24.720Z,65.87
2023-03-17T08:18:24.703Z,65.77
2023-03-17T08:19:24.694Z,66.44
2023-03-17T08:20:24.698Z,67.18
2023-03-17T08:21:24.822Z,67.70
2023-03-17T08:22:24.667Z,67.61
2023-03-17T08:23:24.656Z,67.58
2023-03-17T08:24:24.640Z,67.69
2023-03-17T08:25:24.646Z,68.71
2023-03-17T08:26:24.683Z,68.29
2023-03-17T08:27:24.616Z,67.39
2023-03-17T08:28:24.601Z,68.53
2023-03-17T08:29:24.596Z,67.72
2023-03-17T08:30:24.599Z,67.43
2023-03-17T08:31:24.656Z,67.90
2023-03-17T08:32:24.564Z,66.93
2023-03-17T08:33:24.572Z,67.09
2023-03-17T08:34:24.552Z,67.42
2023-03-17T08:35:24.589Z,66.16
2023-03-17T08:36:24.541Z,66.02
2023-03-17T08:37:24.519Z,65.78
2023-03-17T08:38:24.510Z,67.77
2023-03-17T08:39:24.498Z,67.14
2023-03-17T08:40:24.523Z,66.68
2023-03-17T08:41:24.480Z,67.05
2023-03-17T08:42:24.504Z,66.95
2023-03-17T08:43:24.469Z,66.33
2023-03-17T08:44:24.455Z,66.80
2023-03-17T08:45:24.459Z,66.01
2023-03-17T08:46:24.503Z,66.64
2023-03-17T08:47:24.427Z,66.69
2023-03-17T08:48:24.420Z,66.35
2023-03-17T08:49:24.405Z,66.10
2023-03-17T08:50:24.409Z,68.14
2023-03-17T08:51:24.709Z,68.03
2023-03-17T08:52:25.377Z,67.69
2023-03-17T08:53:24.386Z,67.79
2023-03-17T08:54:24.358Z,65.83
2023-03-17T08:55:24.361Z,67.40
2023-03-17T08:56:24.340Z,67.30
2023-03-17T08:57:24.329Z,67.81
2023-03-17T08:58:24.323Z,66.94
2023-03-17T08:59:24.314Z,67.12
2023-03-17T09:00:24.317Z,66.80
2023-03-17T09:01:24.366Z,67.24
2023-03-17T09:02:24.335Z,66.29
2023-03-17T09:03:24.277Z,67.04
2023-03-17T09:04:24.261Z,66.62
2023-03-17T09:05:24.265Z,66.72
2023-03-17T09:06:24.278Z,66.92
2023-03-17T09:07:24.231Z,68.36
2023-03-17T09:08:24.227Z,66.81
2023-03-17T09:09:24.219Z,66.23
2023-03-17T09:10:24.214Z,67.13
2023-03-17T09:11:24.210Z,67.32
2023-03-17T09:12:24.204Z,67.76
2023-03-17T09:13:24.181Z,66.76
2023-03-17T09:14:24.162Z,67.66
2023-03-17T09:15:24.166Z,67.93
2023-03-17T09:16:24.428Z,66.68
2023-03-17T09:17:24.140Z,67.39
2023-03-17T09:18:24.157Z,67.30
2023-03-17T09:19:24.116Z,67.57
2023-03-17T09:20:24.113Z,67.22
2023-03-17T09:21:24.094Z,67.32
2023-03-17T09:22:24.101Z,67.18
2023-03-17T09:23:24.072Z,66.95
2023-03-17T09:24:24.063Z,66.81
2023-03-17T09:25:24.071Z,67.36
2023-03-17T09:26:24.042Z,67.57
2023-03-17T09:27:24.034Z,67.24
2023-03-17T09:28:24.115Z,68.78
2023-03-17T09:29:24.021Z,67.19
2023-03-17T09:30:24.058Z,67.97
2023-03-17T09:31:24.058Z,67.45
2023-03-17T09:32:23.982Z,67.93
2023-03-17T09:33:23.969Z,67.13
2023-03-17T09:34:24.000Z,67.77
2023-03-17T09:35:23.967Z,68.25
2023-03-17T09:36:23.951Z,67.53
2023-03-17T09:37:23.937Z,67.23
2023-03-17T09:38:23.923Z,67.68
2023-03-17T09:39:23.925Z,68.54
2023-03-17T09:40:23.926Z,67.53
2023-03-17T09:41:23.933Z,68.38
2023-03-17T09:42:23.877Z,68.42
2023-03-17T09:43:23.880Z,67.36
2023-03-17T09:44:23.876Z,67.57
2023-03-17T09:45:23.848Z,67.68
2023-03-17T09:46:23.877Z,67.78
2023-03-17T09:47:23.830Z,68.06
2023-03-17T09:48:23.815Z,67.72
2023-03-17T09:49:23.817Z,68.06
2023-03-17T09:50:23.860Z,68.26
2023-03-17T09:51:24.794Z,67.55
2023-03-17T09:52:23.782Z,67.50
2023-03-17T09:53:23.775Z,67.49
2023-03-17T09:54:23.773Z,67.63
2023-03-17T09:55:23.750Z,67.63
2023-03-17T09:56:23.779Z,69.28
2023-03-17T09:57:23.746Z,67.94
2023-03-17T09:58:23.725Z,68.81
2023-03-17T09:59:23.718Z,67.60
2023-03-17T10:00:23.706Z,67.41
2023-03-17T10:01:23.759Z,68.00
2023-03-17T10:02:23.706Z,68.78
2023-03-17T10:03:23.675Z,68.19
2023-03-17T10:04:23.659Z,69.30
2023-03-17T10:05:23.695Z,68.42
2023-03-17T10:06:23.657Z,67.66
2023-03-17T10:07:23.631Z,68.10
2023-03-17T10:08:31.336Z,68.30
2023-03-17T10:09:27.042Z,68.38
2023-03-17T10:10:24.597Z,68.38
2023-03-17T10:11:23.594Z,68.84
2023-03-17T10:12:23.582Z,68.51
2023-03-17T10:13:23.576Z,68.19
2023-03-17T10:14:23.575Z,68.52
2023-03-17T10:15:23.550Z,68.29
2023-03-17T10:16:23.573Z,67.39
2023-03-17T10:17:23.529Z,67.26
2023-03-17T10:18:23.523Z,67.79
2023-03-17T10:19:23.511Z,67.27
2023-03-17T10:20:23.509Z,67.43
2023-03-17T10:21:23.496Z,67.03
2023-03-17T10:22:23.477Z,67.16
2023-03-17T10:23:23.485Z,68.02
2023-03-17T10:24:23.460Z,67.52
2023-03-17T10:25:23.443Z,67.40
2023-03-17T10:26:23.449Z,67.92
2023-03-17T10:27:23.436Z,67.62
2023-03-17T10:28:23.464Z,67.89
2023-03-17T10:29:23.407Z,67.03
2023-03-17T10:30:23.400Z,67.08
2023-03-17T10:31:23.646Z,68.02
2023-03-17T10:32:23.379Z,67.89
2023-03-17T10:33:23.377Z,67.15
2023-03-17T10:34:23.357Z,68.00
2023-03-17T10:35:23.346Z,66.89
2023-03-17T10:36:23.362Z,67.44
2023-03-17T10:37:23.321Z,67.06
2023-03-17T10:38:23.334Z,67.95
2023-03-17T10:39:23.305Z,68.23
2023-03-17T10:40:23.306Z,68.27
2023-03-17T10:41:23.310Z,67.84
2023-03-17T10:42:23.279Z,67.85
2023-03-17T10:43:23.351Z,67.00
2023-03-17T10:44:23.253Z,68.73
2023-03-17T10:45:23.241Z,66.96
2023-03-17T10:46:23.382Z,67.97
2023-03-17T10:47:23.221Z,67.72
2023-03-17T10:48:23.203Z,68.55
2023-03-17T10:49:23.223Z,67.01
2023-03-17T10:50:23.217Z,67.43
2023-03-17T10:51:23.194Z,68.01
2023-03-17T10:52:23.179Z,67.51
2023-03-17T10:53:23.201Z,67.70
2023-03-17T10:54:23.156Z,68.07
2023-03-17T10:55:23.153Z,67.63
2023-03-17T10:56:23.141Z,66.90
2023-03-17T10:57:23.148Z,66.71
2023-03-17T10:58:23.118Z,67.34
2023-03-17T10:59:23.115Z,67.04
2023-03-17T11:00:23.105Z,67.73
2023-03-17T11:01:55.000Z,67.55
2023-03-17T11:02:23.073Z,67.77
2023-03-17T11:03:23.147Z,66.54
2023-03-17T11:04:23.103Z,66.59
2023-03-17T11:05:23.063Z,66.44
2023-03-17T11:06:23.104Z,66.55
2023-03-17T11:07:23.032Z,67.21
2023-03-17T11:08:23.191Z,66.61
2023-03-17T11:09:22.995Z,66.01
2023-03-17T11:10:23.210Z,66.66
2023-03-17T11:11:22.991Z,67.47
2023-03-17T11:12:23.016Z,66.88
2023-03-17T11:13:23.108Z,65.79
2023-03-17T11:14:23.076Z,66.79
2023-03-17T11:15:22.959Z,65.79
2023-03-17T11:16:22.958Z,66.92
2023-03-17T11:17:22.922Z,65.98
2023-03-17T11:18:22.910Z,67.29
2023-03-17T11:19:22.890Z,68.37
2023-03-17T11:20:22.911Z,67.37
2023-03-17T11:21:22.879Z,67.10
2023-03-17T11:22:22.868Z,67.24
2023-03-17T11:23:22.851Z,66.83
2023-03-17T11:24:22.847Z,67.73
2023-03-17T11:25:22.822Z,67.03
2023-03-17T11:26:22.837Z,66.70
2023-03-17T11:27:22.811Z,66.67
2023-03-17T11:28:22.797Z,66.34
2023-03-17T11:29:22.792Z,67.73
2023-03-17T11:30:22.780Z,66.90
2023-03-17T11:31:22.818Z,67.62
2023-03-17T11:32:22.765Z,65.91
2023-03-17T11:33:22.749Z,66.94
2023-03-17T11:34:22.745Z,67.75
2023-03-17T11:35:22.730Z,67.17
2023-03-17T11:36:22.730Z,67.07
2023-03-17T11:37:22.721Z,66.97
2023-03-17T11:38:22.727Z,68.23
2023-03-17T11:39:22.786Z,67.26
2023-03-17T11:40:22.679Z,68.05
2023-03-17T11:41:22.681Z,68.68
2023-03-17T11:42:22.657Z,67.58
2023-03-17T11:43:22.650Z,66.87
2023-03-17T11:44:22.632Z,66.53
2023-03-17T11:45:22.635Z,67.44
2023-03-17T11:46:22.708Z,67.60
2023-03-17T11:47:22.609Z,67.39
2023-03-17T11:48:22.595Z,67.88
2023-03-17T11:49:23.587Z,67.42
2023-03-17T11:50:22.606Z,67.48
2023-03-17T11:51:22.573Z,66.51
2023-03-17T11:52:22.552Z,67.34
2023-03-17T11:53:22.556Z,68.00
2023-03-17T11:54:22.530Z,67.59
2023-03-17T11:55:22.545Z,67.67
2023-03-17T11:56:22.516Z,67.12
2023-03-17T11:57:22.540Z,67.30
2023-03-17T11:58:22.496Z,67.98
2023-03-17T11:59:22.477Z,67.73
2023-03-17T12:00:22.480Z,67.31
2023-03-17T12:01:22.477Z,68.37
2023-03-17T12:02:22.449Z,67.80
2023-03-17T12:03:22.634Z,67.45
2023-03-17T12:04:22.521Z,66.81
2023-03-17T12:05:22.418Z,68.30
2023-03-17T12:06:22.421Z,68.70
2023-03-17T12:07:22.399Z,68.26
2023-03-17T12:08:22.381Z,67.86
2023-03-17T12:09:22.488Z,67.92
2023-03-17T12:10:22.366Z,68.53
2023-03-17T12:11:22.392Z,67.55
2023-03-17T12:12:22.355Z,67.06
2023-03-17T12:13:22.338Z,66.86
2023-03-17T12:14:22.419Z,67.73
2023-03-17T12:15:22.326Z,67.24
2023-03-17T12:16:22.339Z,68.09
2023-03-17T12:17:23.139Z,68.23
2023-03-17T12:18:22.273Z,67.77
2023-03-17T12:19:23.276Z,67.16
2023-03-17T12:20:22.315Z,67.25
2023-03-17T12:21:22.269Z,68.21
2023-03-17T12:22:22.246Z,67.46
2023-03-17T12:23:22.420Z,67.52
2023-03-17T12:24:22.223Z,68.10
2023-03-17T12:25:22.212Z,66.93
2023-03-17T12:26:22.210Z,68.12
2023-03-17T12:27:22.221Z,67.35
2023-03-17T12:28:22.186Z,68.32
2023-03-17T12:29:22.307Z,68.51
2023-03-17T12:30:22.151Z,67.12
2023-03-17T12:31:23.913Z,66.95
2023-03-17T12:32:22.240Z,67.92
2023-03-17T12:33:22.129Z,68.49
2023-03-17T12:34:22.255Z,67.30
2023-03-17T12:35:22.124Z,67.05
2023-03-17T12:36:22.213Z,66.82
2023-03-17T12:37:22.103Z,67.18
2023-03-17T12:38:22.081Z,67.33
2023-03-17T12:39:22.067Z,67.05
2023-03-17T12:40:22.908Z,66.76
2023-03-17T12:41:22.044Z,68.36
2023-03-17T12:42:22.048Z,68.23
2023-03-17T12:43:22.021Z,67.34
2023-03-17T12:44:22.013Z,67.62
2023-03-17T12:45:22.012Z,66.79
2023-03-17T12:46:21.996Z,67.30
2023-03-17T12:47:21.984Z,67.63
2023-03-17T12:48:21.976Z,67.92
2023-03-17T12:49:22.966Z,68.00
2023-03-17T12:50:21.940Z,67.80
2023-03-17T12:51:21.931Z,67.72
2023-03-17T12:52:21.954Z,67.74